createdAt,value
2019-03-21T20:13:51.096Z,10.12
2019-03-21T20:14:50.844Z,10.09
2019-03-21T20:15:51.080Z,10.07
2019-03-21T20:16:51.066Z,10.06
2019-03-21T20:17:51.060Z,10.05
2019-03-21T20:18:51.058Z,10.05
2019-03-21T20:19:51.039Z,10.02
2019-03-21T20:20:51.024Z,9.95
2019-03-21T20:21:53.017Z,9.9
2019-03-21T20:22:50.763Z,9.87
2019-03-21T20:23:51.153Z,9.87
2019-03-21T20:24:50.995Z,9.84
2019-03-21T20:25:51.176Z,9.87
2019-03-21T20:26:50.968Z,9.77
2019-03-21T20:27:50.955Z,9.74
2019-03-21T20:28:50.952Z,9.8
2019-03-21T20:29:50.941Z,9.74
2019-03-21T20:30:51.166Z,9.74
2019-03-21T20:31:50.927Z,9.69
2019-03-21T20:32:50.916Z,9.72
2019-03-21T20:33:50.907Z,9.59
2019-03-21T20:34:50.897Z,9.66
2019-03-21T20:35:50.885Z,9.64
2019-03-21T20:36:50.888Z,9.66
2019-03-21T20:37:50.880Z,9.58
2019-03-21T20:38:50.868Z,9.62
2019-03-21T20:39:50.860Z,9.54
2019-03-21T20:40:50.856Z,9.52
2019-03-21T20:41:50.840Z,9.51
2019-03-21T20:42:50.841Z,9.4
2019-03-21T20:43:50.575Z,9.44
2019-03-21T20:44:50.816Z,9.45
2019-03-21T20:45:50.809Z,9.47
2019-03-21T20:46:50.794Z,9.51
2019-03-21T20:47:50.880Z,9.42
2019-03-21T20:48:50.791Z,9.52
2019-03-21T20:49:50.771Z,9.42
2019-03-21T20:50:50.776Z,9.45
2019-03-21T20:51:50.774Z,9.42
2019-03-21T20:52:50.747Z,9.45
2019-03-21T20:53:50.736Z,9.51
2019-03-21T20:54:50.733Z,9.47
2019-03-21T20:55:58.691Z,9.48
2019-03-21T20:56:50.715Z,9.45
2019-03-21T20:57:50.710Z,9.42
2019-03-21T20:58:50.449Z,9.31
2019-03-21T20:59:50.696Z,9.34
2019-03-21T21:00:50.681Z,9.37
2019-03-21T21:02:01.829Z,9.44
2019-03-21T21:02:50.665Z,9.29
2019-03-21T21:03:50.661Z,9.3
2019-03-21T21:04:50.788Z,9.29
2019-03-21T21:05:50.634Z,9.31
2019-03-21T21:06:50.622Z,9.29
2019-03-21T21:07:50.625Z,9.16
2019-03-21T21:08:50.604Z,9.18
2019-03-21T21:09:50.596Z,9.12
2019-03-21T21:10:50.642Z,9.12
2019-03-21T21:11:50.615Z,9.13
2019-03-21T21:12:50.568Z,9.08
2019-03-21T21:13:50.316Z,9.09
2019-03-21T21:14:50.553Z,9.16
2019-03-21T21:15:50.569Z,8.99
2019-03-21T21:16:50.567Z,9.02
2019-03-21T21:17:50.535Z,9.11
2019-03-21T21:18:50.924Z,9.03
2019-03-21T21:19:50.518Z,8.97
2019-03-21T21:20:50.505Z,9.03
2019-03-21T21:21:50.496Z,9.11
2019-03-21T21:22:50.253Z,9.03
2019-03-21T21:23:50.480Z,9.13
2019-03-21T21:24:50.475Z,9.03
2019-03-21T21:25:50.468Z,9.05
2019-03-21T21:26:50.516Z,9.02
2019-03-21T21:27:54.676Z,9.02
2019-03-21T21:28:50.196Z,9.08
2019-03-21T21:29:50.432Z,8.95
2019-03-21T21:30:50.426Z,9.02
2019-03-21T21:31:50.428Z,9
2019-03-21T21:32:50.407Z,9.05
2019-03-21T21:33:50.402Z,8.96
2019-03-21T21:34:50.390Z,8.99
2019-03-21T21:35:50.384Z,9.03
2019-03-21T21:36:50.387Z,8.97
2019-03-21T21:37:50.370Z,8.82
2019-03-21T21:38:50.383Z,9.03
2019-03-21T21:39:50.424Z,8.93
2019-03-21T21:40:50.346Z,8.95
2019-03-21T21:41:50.342Z,8.96
2019-03-21T21:42:50.088Z,8.99
2019-03-21T21:43:50.314Z,8.92
2019-03-21T21:44:50.065Z,8.9
2019-03-21T21:45:50.336Z,8.71
2019-03-21T21:46:50.306Z,8.75
2019-03-21T21:47:50.283Z,8.71
2019-03-21T21:48:50.277Z,8.69
2019-03-21T21:49:50.275Z,8.64
2019-03-21T21:50:50.262Z,8.6
2019-03-21T21:51:50.274Z,8.61
2019-03-21T21:52:50.254Z,8.56
2019-03-21T21:53:50.261Z,8.53
2019-03-21T21:54:51.714Z,8.56
2019-03-21T21:55:50.229Z,8.49
2019-03-21T21:56:50.233Z,8.42
2019-03-21T21:57:50.209Z,8.44
2019-03-21T21:58:50.218Z,8.42
2019-03-21T21:59:52.790Z,8.38
2019-03-21T22:00:50.186Z,8.36
2019-03-21T22:01:50.175Z,8.2
2019-03-21T22:02:50.177Z,8.2
2019-03-21T22:03:50.156Z,8.11
2019-03-21T22:04:50.152Z,8.09
2019-03-21T22:05:50.148Z,8.08
2019-03-21T22:06:50.137Z,8.11
2019-03-21T22:07:49.875Z,8.11
2019-03-21T22:08:49.906Z,8.08
2019-03-21T22:09:50.110Z,8.03
2019-03-21T22:10:50.097Z,7.93
2019-03-21T22:11:49.848Z,7.91
2019-03-21T22:12:50.082Z,7.96
2019-03-21T22:13:50.074Z,8.03
2019-03-21T22:14:50.066Z,8.01
2019-03-21T22:15:50.061Z,8.05
2019-03-21T22:16:50.057Z,8.09
2019-03-21T22:17:50.069Z,8.06
2019-03-21T22:18:50.032Z,8.02
2019-03-21T22:19:50.026Z,8.09
2019-03-21T22:20:50.016Z,8.02
2019-03-21T22:21:50.005Z,7.84
2019-03-21T22:22:50.007Z,7.74
2019-03-21T22:23:49.846Z,7.64
2019-03-21T22:24:49.985Z,7.64
2019-03-21T22:25:49.984Z,7.47
2019-03-21T22:26:49.984Z,7.39
2019-03-21T22:27:49.971Z,7.33
2019-03-21T22:28:49.953Z,7.13
2019-03-21T22:29:49.706Z,7.08
2019-03-21T22:30:49.941Z,6.95
2019-03-21T22:31:49.932Z,6.87
2019-03-21T22:32:49.927Z,6.8
2019-03-21T22:33:49.665Z,6.68
2019-03-21T22:34:49.909Z,6.64
2019-03-21T22:35:49.896Z,6.59
2019-03-21T22:36:54.257Z,6.62
2019-03-21T22:37:49.889Z,6.59
2019-03-21T22:38:49.871Z,6.5
2019-03-21T22:39:49.862Z,6.52
2019-03-21T22:40:49.853Z,6.65
2019-03-21T22:41:49.844Z,6.67
2019-03-21T22:42:49.844Z,6.62
2019-03-21T22:43:49.830Z,6.62
2019-03-21T22:44:49.819Z,6.67
2019-03-21T22:45:49.565Z,6.49
2019-03-21T22:46:49.808Z,6.52
2019-03-21T22:47:52.839Z,6.38
2019-03-21T22:48:49.788Z,6.35
2019-03-21T22:49:49.778Z,6.2
2019-03-21T22:50:49.771Z,6.26
2019-03-21T22:51:49.767Z,6.06
2019-03-21T22:52:49.775Z,6.15
2019-03-21T22:53:49.748Z,6.07
2019-03-21T22:54:50.937Z,5.94
2019-03-21T22:55:49.731Z,5.95
2019-03-21T22:56:49.472Z,5.98
2019-03-21T22:57:49.463Z,5.87
2019-03-21T22:58:49.708Z,5.84
2019-03-21T22:59:49.700Z,5.79
2019-03-21T23:00:49.689Z,5.59
2019-03-21T23:01:49.681Z,5.59
2019-03-21T23:02:49.679Z,5.52
2019-03-21T23:03:49.663Z,5.44
2019-03-21T23:04:49.656Z,5.41
2019-03-21T23:05:49.675Z,5.4
2019-03-21T23:06:49.639Z,5.38
2019-03-21T23:07:49.630Z,5.37
2019-03-21T23:08:49.624Z,5.38
2019-03-21T23:09:49.613Z,5.34
2019-03-21T23:10:50.091Z,5.34
2019-03-21T23:11:49.599Z,5.4
2019-03-21T23:12:49.381Z,5.43
2019-03-21T23:13:49.587Z,5.31
2019-03-21T23:14:49.574Z,5.36
2019-03-21T23:15:49.563Z,5.31
2019-03-21T23:16:49.556Z,5.34
2019-03-21T23:17:49.551Z,5.31
2019-03-21T23:18:49.545Z,5.2
2019-03-21T23:19:49.536Z,5.1
2019-03-21T23:20:49.526Z,5.18
2019-03-21T23:21:49.514Z,5.15
2019-03-21T23:22:49.505Z,5.15
2019-03-21T23:23:49.505Z,5.07
2019-03-21T23:24:49.490Z,5.12
2019-03-21T23:25:49.485Z,5.08
2019-03-21T23:26:57.653Z,5.13
2019-03-21T23:27:49.478Z,5.08
2019-03-21T23:28:49.214Z,5.05
2019-03-21T23:29:49.458Z,5.07
2019-03-21T23:30:49.442Z,5.02
2019-03-21T23:31:49.185Z,5.01
2019-03-21T23:32:49.430Z,5.01
2019-03-21T23:33:49.173Z,4.92
2019-03-21T23:34:49.408Z,4.83
2019-03-21T23:35:49.403Z,4.74
2019-03-21T23:36:49.650Z,4.76
2019-03-21T23:37:49.382Z,4.74
2019-03-21T23:38:49.424Z,4.7
2019-03-21T23:39:49.365Z,4.67
2019-03-21T23:40:49.357Z,4.74
2019-03-21T23:41:49.552Z,4.7
2019-03-21T23:42:49.340Z,4.67
2019-03-21T23:43:49.329Z,4.74
2019-03-21T23:44:49.319Z,4.71
2019-03-21T23:45:49.073Z,4.7
2019-03-21T23:46:49.307Z,4.67
2019-03-21T23:47:49.297Z,4.7
2019-03-21T23:48:49.286Z,4.74
2019-03-21T23:49:49.282Z,4.71
2019-03-21T23:50:49.271Z,4.67
2019-03-21T23:51:49.263Z,4.7
2019-03-21T23:52:49.339Z,4.75
2019-03-21T23:53:49.268Z,4.57
2019-03-21T23:54:49.061Z,4.64
2019-03-21T23:55:49.255Z,4.57
2019-03-21T23:56:49.252Z,4.48
2019-03-21T23:57:48.981Z,4.53
2019-03-21T23:58:49.217Z,4.45
2019-03-21T23:59:49.206Z,4.39
